WetterOnline ( https://www.wetteronline.de )

Wetter aktuell Meuselbach-Schwarzmühle

Aktuelles Wetter: Coburg (323m)

6-stündlich | Neueste Meldungen
Ortszeit Temperatur Wetter
So, 26.05. 20:00 21.3° C bedeckt
So, 26.05. 14:00 21.4° C fast wolkenlos
So, 26.05. 8:00 13.5° C wolkenlos
So, 26.05. 2:00 11.1° C bewölkt
Sa, 25.05. 20:00 15.3° C wolkig
Sa, 25.05. 14:00 18.2° C wolkig
Sa, 25.05. 8:00 12.4° C Sprühregen
Sa, 25.05. 2:00 10.7° C Nebel
Ortszeit Temperatur Wetter
So, 26.05. 22:30 16.8° C bedeckt
So, 26.05. 22:20 16.8° C bedeckt
So, 26.05. 22:10 17.0° C bedeckt
So, 26.05. 22:00 17.8° C bewölkt
So, 26.05. 21:50 17.8° C bewölkt
So, 26.05. 21:40 18.0° C bedeckt
So, 26.05. 21:30 18.4° C bewölkt
So, 26.05. 21:00 18.4° C bedeckt
So, 26.05. 20:30 20.6° C bedeckt
So, 26.05. 20:00 21.3° C bedeckt
So, 26.05. 19:30 21.6° C bedeckt
Ortszeit Relative Feuchte Sichtweite
So, 26.05. 20:00 52% >70 km
So, 26.05. 14:00 43% 55 km
So, 26.05. 8:00 80% >70 km
So, 26.05. 2:00 92% 50 km
Sa, 25.05. 20:00 71% 65 km
Sa, 25.05. 14:00 59% >70 km
Sa, 25.05. 8:00 95% 6 km
Sa, 25.05. 2:00 99% 0.5 km
Ortszeit Relative Feuchte Sichtweite
So, 26.05. 22:30 76% >70 km
So, 26.05. 22:20 76% -
So, 26.05. 22:10 75% -
So, 26.05. 22:00 71% 65 km
So, 26.05. 21:50 71% -
So, 26.05. 21:40 70% -
So, 26.05. 21:30 69% 65 km
So, 26.05. 21:00 69% >70 km
So, 26.05. 20:30 56% 65 km
So, 26.05. 20:00 52% >70 km
So, 26.05. 19:30 49% >70 km
Ortszeit Niederschlagsmenge Niederschlagsart
So, 26.05. 20:00 0.0 l/m2 in 12 Std. -
So, 26.05. 14:00 0.0 l/m2 in 6 Std. -
So, 26.05. 8:00 0.0 l/m2 in 12 Std. -
So, 26.05. 2:00 0.0 l/m2 in 6 Std. -
Sa, 25.05. 20:00 0.1 l/m2 in 12 Std. -
Sa, 25.05. 14:00 0.1 l/m2 in 6 Std. Sprühregen
Sa, 25.05. 8:00 0.1 l/m2 in 12 Std. Sprühregen
Sa, 25.05. 2:00 0.1 l/m2 in 6 Std. Regen
Ortszeit Niederschlagsmenge Niederschlagsart
So, 26.05. 22:30 0.0 l/m2 in 30 Min -
So, 26.05. 22:20 keine Meldung -
So, 26.05. 22:10 keine Meldung -
So, 26.05. 22:00 0.0 l/m2 in 1 Std. -
So, 26.05. 21:50 keine Meldung -
So, 26.05. 21:40 keine Meldung -
So, 26.05. 21:30 0.0 l/m2 in 30 Min -
So, 26.05. 21:00 0.0 l/m2 in 1 Std. -
So, 26.05. 20:30 0.0 l/m2 in 30 Min -
So, 26.05. 20:00 0.0 l/m2 in 1 Std. -
So, 26.05. 19:30 0.0 l/m2 in 30 Min -
Ortszeit Stärke Spitze Richtung
km/h Bft. km/h Grad Sektor
So, 26.05. 20:00 11 2 29 210° SW
So, 26.05. 14:00 11 2 22 180° S
So, 26.05. 8:00 4 1 14 90° O
So, 26.05. 2:00 7 2 18 60° NO
Sa, 25.05. 20:00 13 3 37 100° O
Sa, 25.05. 14:00 11 2 18 190° S
Sa, 25.05. 8:00 4 1 11 210° SW
Sa, 25.05. 2:00 4 1 14 60° NO
Ortszeit Stärke Spitze Richtung
km/h Bft. km/h Grad Sektor
So, 26.05. 22:30 7 2 11 70° O
So, 26.05. 22:20 7 2 - 70° O
So, 26.05. 22:10 7 2 - 70° O
So, 26.05. 22:00 7 2 11 70° O
So, 26.05. 21:50 7 2 - 70° O
So, 26.05. 21:40 6 1 - 70° O
So, 26.05. 21:30 7 2 11 70° O
So, 26.05. 21:00 7 2 11 70° O
So, 26.05. 20:30 4 1 11 190° S
So, 26.05. 20:00 11 2 14 210° SW
So, 26.05. 19:30 11 2 14 200° S
Ortszeit Untergrenze Bedeckung Gattung
total tief tief mittel hoch
So, 26.05. 20:00 3000 m 8/8 8/8 - - -
So, 26.05. 14:00 1500 m 1/8 1/8 - - -
So, 26.05. 8:00 - 0/8 0/8 - - -
So, 26.05. 2:00 1500 m 7/8 7/8 - - -
Sa, 25.05. 20:00 2400 m 8/8 1/8 - - -
Sa, 25.05. 14:00 930 m 7/8 2/8 - - -
Sa, 25.05. 8:00 180 m 7/8 7/8 - - -
Sa, 25.05. 2:00 30 m 7/8 7/8 - - -
Ortszeit Bedeckungsgrad in Achtel und Wolkenuntergrenze
So, 26.05. 22:30 8(3600m) 8(6000m) 8(9000m)
So, 26.05. 22:20 8(3600m) 8(6000m) 8(9000m)
So, 26.05. 22:10 8
So, 26.05. 22:00 7(2700m) 8(3900m) 8(6000m)
So, 26.05. 21:50 7(2700m) 8(3900m) 8(6000m)
So, 26.05. 21:40 8
So, 26.05. 21:30 7(2700m) 8(4200m) 8(5700m)
So, 26.05. 21:00 4(3000m) 8(5100m) 8(6300m)
So, 26.05. 20:30 8(5100m) 8(6300m) 8(8400m)
So, 26.05. 20:00 1(3000m) 8(4500m) 8(6900m)
So, 26.05. 19:30 7(4500m) 8(5400m)
Ortszeit Luftdruck NN (hPa) Tendenz (hPa in 3 Std.)
So, 26.05. 20:00 1016 - 0,1
So, 26.05. 14:00 1018 - 0,4
So, 26.05. 8:00 1019 + 0,6
So, 26.05. 2:00 1019 + 0,3
Sa, 25.05. 20:00 1017 + 0,4
Sa, 25.05. 14:00 1018 - 0,5
Sa, 25.05. 8:00 1019 + 0,6
Sa, 25.05. 2:00 1018 + 0,5
Ortszeit Luftdruck NN (hPa) Tendenz (hPa in 3 Std.)
So, 26.05. 22:30 1017 + 0,5
So, 26.05. 22:20 1017 keine Meldung
So, 26.05. 22:10 1017 keine Meldung
So, 26.05. 22:00 1017 + 0,5
So, 26.05. 21:50 1017 keine Meldung
So, 26.05. 21:40 1017 keine Meldung
So, 26.05. 21:30 1017 + 0,3
So, 26.05. 21:00 1017 + 0,1
So, 26.05. 20:30 1016 + 0,1
So, 26.05. 20:00 1016 - 0,1
So, 26.05. 19:30 1016 - 0,3
Ortszeit Schneehöhe (cm)
So, 26.05. 20:00 0
So, 26.05. 14:00 0
So, 26.05. 8:00 0
So, 26.05. 2:00 0
Sa, 25.05. 20:00 0
Sa, 25.05. 14:00 0
Sa, 25.05. 8:00 0
Sa, 25.05. 2:00 0
Ortszeit Schneehöhe (cm)
So, 26.05. 22:30 0
So, 26.05. 22:20 0
So, 26.05. 22:10 -
So, 26.05. 22:00 0
So, 26.05. 21:50 0
So, 26.05. 21:40 -
So, 26.05. 21:30 0
So, 26.05. 21:00 0
So, 26.05. 20:30 0
So, 26.05. 20:00 0
So, 26.05. 19:30 0
Link zu dieser Seite / Seite empfehlen

Das Wetter in ...